DBDHM EDDH-EDXW
Flight info
| Callsign | DBDHM |
|---|---|
| Flight time | 0h 21m |
| Altitude | 28000 |
| Route | SOKWO1C SOKWO T814 EXNEL DCT OLDIP DCT |
| Aircraft | C700/M-SBDGHM1RWXY/LB2 |
Departure
| Time | 2026-05-06 13:09 |
|---|---|
| Airport | Hamburg Helmut Schmidt Airport (EDDH) |
Arrival
| Time | 2026-05-06 13:30 |
|---|---|
| Airport | Westerland Sylt Airport (EDXW) |
| Time | Latitude | Longitude | Altitude | Speed | Heading |
|---|---|---|---|---|---|
| 2026-05-06 12:48 | 53.62400 | 9.98884 | 38 ft | 0 kts | 349° |
| 2026-05-06 12:58 | 53.62389 | 9.98888 | 11 ft | 4 kts | 338° |
| 2026-05-06 12:58 | 53.62369 | 9.98913 | 45 ft | 4 kts | 302° |
| 2026-05-06 12:59 | 53.62361 | 9.98939 | 38 ft | 4 kts | 286° |
| 2026-05-06 12:59 | 53.62357 | 9.98997 | 38 ft | 3 kts | 260° |
| 2026-05-06 12:59 | 53.62358 | 9.99002 | 38 ft | 0 kts | 259° |
| 2026-05-06 13:01 | 53.62357 | 9.99000 | 38 ft | 2 kts | 256° |
| 2026-05-06 13:01 | 53.62358 | 9.98964 | 38 ft | 2 kts | 350° |
| 2026-05-06 13:02 | 53.62365 | 9.98982 | 38 ft | 2 kts | 86° |
| 2026-05-06 13:02 | 53.62367 | 9.99033 | 39 ft | 7 kts | 86° |
| 2026-05-06 13:02 | 53.62375 | 9.99136 | 39 ft | 10 kts | 76° |
| 2026-05-06 13:02 | 53.62428 | 9.99222 | 39 ft | 12 kts | 16° |
| 2026-05-06 13:03 | 53.62523 | 9.99222 | 39 ft | 15 kts | 354° |
| 2026-05-06 13:03 | 53.62560 | 9.99067 | 39 ft | 18 kts | 258° |
| 2026-05-06 13:03 | 53.62534 | 9.98830 | 38 ft | 23 kts | 259° |
| 2026-05-06 13:03 | 53.62502 | 9.98547 | 37 ft | 26 kts | 257° |
| 2026-05-06 13:04 | 53.62465 | 9.98222 | 36 ft | 30 kts | 258° |
| 2026-05-06 13:04 | 53.62432 | 9.97942 | 35 ft | 19 kts | 259° |
| 2026-05-06 13:04 | 53.62432 | 9.97853 | 35 ft | 0 kts | 297° |
| 2026-05-06 13:07 | 53.62432 | 9.97852 | 35 ft | 0 kts | 297° |
| 2026-05-06 13:07 | 53.62464 | 9.97797 | 35 ft | 14 kts | 321° |
| 2026-05-06 13:07 | 53.62516 | 9.97762 | 35 ft | 4 kts | 58° |
| 2026-05-06 13:08 | 53.62528 | 9.97787 | 35 ft | 0 kts | 50° |
| 2026-05-06 13:08 | 53.62539 | 9.97810 | 35 ft | 20 kts | 51° |
| 2026-05-06 13:08 | 53.62853 | 9.98450 | 47 ft | 119 kts | 52° |
| 2026-05-06 13:09 | 53.63529 | 9.99839 | 576 ft | 181 kts | 51° |
| 2026-05-06 13:09 | 53.64362 | 10.01576 | 1668 ft | 184 kts | 49° |
| 2026-05-06 13:09 | 53.65173 | 10.03156 | 3395 ft | 183 kts | 51° |
| 2026-05-06 13:09 | 53.66029 | 10.04890 | 4749 ft | 206 kts | 52° |
| 2026-05-06 13:10 | 53.66962 | 10.06798 | 6358 ft | 204 kts | 52° |
| 2026-05-06 13:10 | 53.67884 | 10.08681 | 7931 ft | 216 kts | 51° |
| 2026-05-06 13:10 | 53.68855 | 10.10667 | 9415 ft | 226 kts | 51° |
| 2026-05-06 13:10 | 53.69950 | 10.12907 | 9984 ft | 264 kts | 50° |
| 2026-05-06 13:11 | 53.71236 | 10.15096 | 10357 ft | 258 kts | 36° |
| 2026-05-06 13:11 | 53.72719 | 10.16550 | 12300 ft | 241 kts | 26° |
| 2026-05-06 13:11 | 53.74400 | 10.17375 | 13530 ft | 267 kts | 9° |
| 2026-05-06 13:11 | 53.76358 | 10.17320 | 14403 ft | 296 kts | 351° |
| 2026-05-06 13:12 | 53.78434 | 10.16492 | 15298 ft | 324 kts | 345° |
| 2026-05-06 13:12 | 53.80718 | 10.15519 | 16267 ft | 350 kts | 345° |
| 2026-05-06 13:12 | 53.83104 | 10.14540 | 17789 ft | 354 kts | 344° |
| 2026-05-06 13:12 | 53.85536 | 10.13553 | 19073 ft | 362 kts | 344° |
| 2026-05-06 13:13 | 53.88009 | 10.12538 | 20204 ft | 368 kts | 344° |
| 2026-05-06 13:13 | 53.90487 | 10.11513 | 21258 ft | 373 kts | 344° |
| 2026-05-06 13:13 | 53.93037 | 10.10460 | 22314 ft | 379 kts | 344° |
| 2026-05-06 13:13 | 53.95625 | 10.09393 | 23351 ft | 385 kts | 344° |
| 2026-05-06 13:14 | 53.98257 | 10.08306 | 24229 ft | 391 kts | 344° |
| 2026-05-06 13:14 | 54.00889 | 10.07013 | 25029 ft | 395 kts | 334° |
| 2026-05-06 13:14 | 54.03069 | 10.04315 | 25841 ft | 393 kts | 310° |
| 2026-05-06 13:14 | 54.04701 | 10.00558 | 26643 ft | 396 kts | 300° |
| 2026-05-06 13:15 | 54.06120 | 9.96476 | 27415 ft | 402 kts | 297° |
| 2026-05-06 13:15 | 54.07557 | 9.92383 | 27864 ft | 417 kts | 300° |
| 2026-05-06 13:15 | 54.09321 | 9.88236 | 27879 ft | 443 kts | 306° |
| 2026-05-06 13:15 | 54.11349 | 9.84112 | 27885 ft | 458 kts | 308° |
| 2026-05-06 13:16 | 54.13390 | 9.79974 | 27883 ft | 457 kts | 306° |
| 2026-05-06 13:16 | 54.15295 | 9.75656 | 27885 ft | 453 kts | 303° |
| 2026-05-06 13:16 | 54.17156 | 9.71283 | 27540 ft | 457 kts | 304° |
| 2026-05-06 13:16 | 54.19095 | 9.66986 | 26945 ft | 454 kts | 306° |
| 2026-05-06 13:17 | 54.21027 | 9.62840 | 26358 ft | 445 kts | 306° |
| 2026-05-06 13:17 | 54.22912 | 9.58657 | 25777 ft | 436 kts | 304° |
| 2026-05-06 13:17 | 54.24702 | 9.54580 | 25207 ft | 429 kts | 304° |
| 2026-05-06 13:17 | 54.26504 | 9.50523 | 24643 ft | 425 kts | 304° |
| 2026-05-06 13:18 | 54.28307 | 9.46520 | 24083 ft | 422 kts | 305° |
| 2026-05-06 13:18 | 54.30072 | 9.42577 | 23535 ft | 420 kts | 304° |
| 2026-05-06 13:18 | 54.31836 | 9.38596 | 22936 ft | 417 kts | 304° |
| 2026-05-06 13:18 | 54.33612 | 9.34663 | 22377 ft | 414 kts | 308° |
| 2026-05-06 13:19 | 54.35579 | 9.31051 | 21830 ft | 409 kts | 307° |
| 2026-05-06 13:19 | 54.37175 | 9.27284 | 21204 ft | 385 kts | 301° |
| 2026-05-06 13:19 | 54.38602 | 9.23472 | 20345 ft | 360 kts | 300° |
| 2026-05-06 13:19 | 54.39920 | 9.20134 | 18829 ft | 330 kts | 302° |
| 2026-05-06 13:20 | 54.41354 | 9.16950 | 15781 ft | 353 kts | 306° |
| 2026-05-06 13:20 | 54.42977 | 9.13489 | 14527 ft | 367 kts | 306° |
| 2026-05-06 13:20 | 54.44480 | 9.10107 | 13583 ft | 356 kts | 305° |
| 2026-05-06 13:20 | 54.45938 | 9.06683 | 12527 ft | 350 kts | 305° |
| 2026-05-06 13:21 | 54.47333 | 9.03478 | 12119 ft | 310 kts | 306° |
| 2026-05-06 13:21 | 54.48562 | 9.00701 | 10621 ft | 287 kts | 306° |
| 2026-05-06 13:21 | 54.49750 | 8.97985 | 10211 ft | 275 kts | 306° |
| 2026-05-06 13:21 | 54.50886 | 8.95380 | 10088 ft | 278 kts | 306° |
| 2026-05-06 13:22 | 54.52077 | 8.92648 | 9747 ft | 290 kts | 307° |
| 2026-05-06 13:22 | 54.53294 | 8.89859 | 9344 ft | 290 kts | 307° |
| 2026-05-06 13:22 | 54.54495 | 8.87101 | 8960 ft | 285 kts | 307° |
| 2026-05-06 13:22 | 54.55674 | 8.84391 | 8587 ft | 280 kts | 308° |
| 2026-05-06 13:23 | 54.56842 | 8.81704 | 8222 ft | 279 kts | 308° |
| 2026-05-06 13:23 | 54.57995 | 8.79045 | 7857 ft | 279 kts | 309° |
| 2026-05-06 13:23 | 54.59165 | 8.76348 | 7489 ft | 280 kts | 309° |
| 2026-05-06 13:23 | 54.60333 | 8.73653 | 7120 ft | 281 kts | 309° |
| 2026-05-06 13:24 | 54.61517 | 8.71008 | 6771 ft | 280 kts | 314° |
| 2026-05-06 13:24 | 54.62985 | 8.68855 | 6437 ft | 273 kts | 328° |
| 2026-05-06 13:24 | 54.64545 | 8.66983 | 6072 ft | 272 kts | 328° |
| 2026-05-06 13:24 | 54.66083 | 8.65102 | 5710 ft | 270 kts | 328° |
| 2026-05-06 13:25 | 54.67618 | 8.63221 | 5356 ft | 269 kts | 327° |
| 2026-05-06 13:25 | 54.69121 | 8.61381 | 5008 ft | 267 kts | 328° |
| 2026-05-06 13:25 | 54.70631 | 8.59537 | 4652 ft | 266 kts | 327° |
| 2026-05-06 13:25 | 54.72140 | 8.57689 | 4296 ft | 263 kts | 328° |
| 2026-05-06 13:26 | 54.73628 | 8.55866 | 3937 ft | 260 kts | 328° |
| 2026-05-06 13:26 | 54.75060 | 8.54105 | 3601 ft | 244 kts | 327° |
| 2026-05-06 13:26 | 54.76401 | 8.52456 | 3293 ft | 229 kts | 328° |
| 2026-05-06 13:26 | 54.77670 | 8.50897 | 2992 ft | 218 kts | 329° |
| 2026-05-06 13:27 | 54.78870 | 8.49439 | 2827 ft | 205 kts | 328° |
| 2026-05-06 13:27 | 54.80004 | 8.48035 | 2569 ft | 201 kts | 328° |
| 2026-05-06 13:27 | 54.81140 | 8.46630 | 2310 ft | 199 kts | 328° |
| 2026-05-06 13:27 | 54.82265 | 8.45240 | 2038 ft | 198 kts | 328° |
| 2026-05-06 13:28 | 54.83386 | 8.43854 | 1769 ft | 197 kts | 328° |
| 2026-05-06 13:28 | 54.84467 | 8.42526 | 1547 ft | 175 kts | 327° |
| 2026-05-06 13:28 | 54.85388 | 8.41382 | 1306 ft | 152 kts | 328° |
| 2026-05-06 13:28 | 54.86162 | 8.40426 | 1111 ft | 130 kts | 328° |
| 2026-05-06 13:29 | 54.86897 | 8.39515 | 927 ft | 129 kts | 328° |
| 2026-05-06 13:29 | 54.87615 | 8.38637 | 750 ft | 126 kts | 328° |
| 2026-05-06 13:29 | 54.88324 | 8.37755 | 574 ft | 124 kts | 328° |
| 2026-05-06 13:29 | 54.89020 | 8.36893 | 403 ft | 120 kts | 328° |
| 2026-05-06 13:30 | 54.89691 | 8.36066 | 238 ft | 119 kts | 328° |
| 2026-05-06 13:30 | 54.90363 | 8.35230 | 83 ft | 117 kts | 328° |
| 2026-05-06 13:30 | 54.90965 | 8.34482 | 38 ft | 85 kts | 327° |
| 2026-05-06 13:30 | 54.91277 | 8.34104 | 38 ft | 36 kts | 324° |
| 2026-05-06 13:31 | 54.91460 | 8.33878 | 36 ft | 30 kts | 324° |
| 2026-05-06 13:31 | 54.91625 | 8.33674 | 39 ft | 29 kts | 324° |
| 2026-05-06 13:31 | 54.91790 | 8.33472 | 39 ft | 21 kts | 324° |
| 2026-05-06 13:31 | 54.91844 | 8.33406 | 37 ft | 4 kts | 325° |
| 2026-05-06 13:32 | 54.91880 | 8.33349 | 37 ft | 9 kts | 300° |
| 2026-05-06 13:32 | 54.91868 | 8.33232 | 36 ft | 12 kts | 216° |
| 2026-05-06 13:32 | 54.91775 | 8.33179 | 36 ft | 16 kts | 184° |
| 2026-05-06 13:32 | 54.91638 | 8.33174 | 32 ft | 22 kts | 180° |
| 2026-05-06 13:33 | 54.91487 | 8.33179 | 28 ft | 16 kts | 174° |
| 2026-05-06 13:33 | 54.91397 | 8.33246 | 27 ft | 12 kts | 173° |
| 2026-05-06 13:33 | 54.91306 | 8.33217 | 27 ft | 15 kts | 209° |
| 2026-05-06 13:33 | 54.91210 | 8.33179 | 31 ft | 14 kts | 182° |
| 2026-05-06 13:34 | 54.91095 | 8.33178 | 30 ft | 19 kts | 181° |
| 2026-05-06 13:34 | 54.91026 | 8.33113 | 32 ft | 11 kts | 237° |
| 2026-05-06 13:34 | 54.91022 | 8.32985 | 34 ft | 12 kts | 305° |
| 2026-05-06 13:34 | 54.91066 | 8.32851 | 36 ft | 14 kts | 292° |
| 2026-05-06 13:35 | 54.91099 | 8.32702 | 34 ft | 10 kts | 317° |
| 2026-05-06 13:35 | 54.91168 | 8.32608 | 31 ft | 15 kts | 306° |
| 2026-05-06 13:35 | 54.91232 | 8.32519 | 27 ft | 2 kts | 36° |
| 2026-05-06 13:35 | 54.91239 | 8.32537 | 27 ft | 0 kts | 56° |
| 2026-05-06 13:36 | 54.91247 | 8.32530 | 27 ft | 0 kts | 60° |